Jard de Loiza, Puerto Rico
Current Conditions -  °F | °C
As of 11:53 AM on Thursday 18 Dec 2014 (Local Time) from TJNR Reporting Station
Few Clouds Few Clouds  
Wind Chill: 84°   Ceiling: Unl
Heat Index: 88°   Visibility: 10mi
Dew Point: 70°   Wind: 10mph
Humidity: 63%   Direction: 20°NNE
Pressure: 30.06"   Gusts: NA
Location:  18.2022°N, 65.86°W
Report Text: TJNR 181553Z AUTO 02009KT 10SM FEW030 29/21 A3006 RMK AO2 SLP178 T02890211 $
Loading
Personal Weather Stations






























Interactive Weather Map New forecast layout! Learn more

10-Day Weather Forecast

Advertisements
Track Severe Weather on mobile